sensor_id;sensor_type;location;lat;lon;timestamp;pressure;altitude;pressure_sealevel;temperature
24740;BMP280;45234;48.148;17.128;2023-08-12T00:01:00;100627.09;;;18.75
24740;BMP280;45234;48.148;17.128;2023-08-12T00:03:27;100632.13;;;18.77
24740;BMP280;45234;48.148;17.128;2023-08-12T00:05:54;100623.66;;;18.75
24740;BMP280;45234;48.148;17.128;2023-08-12T00:08:23;100629.19;;;18.73
24740;BMP280;45234;48.148;17.128;2023-08-12T00:10:50;100630.22;;;18.72
24740;BMP280;45234;48.148;17.128;2023-08-12T00:13:16;100624.38;;;18.70
24740;BMP280;45234;48.148;17.128;2023-08-12T00:15:45;100626.66;;;18.67
24740;BMP280;45234;48.148;17.128;2023-08-12T00:18:12;100620.31;;;18.63
24740;BMP280;45234;48.148;17.128;2023-08-12T00:20:39;100624.44;;;18.59
24740;BMP280;45234;48.148;17.128;2023-08-12T00:23:06;100633.53;;;18.56
24740;BMP280;45234;48.148;17.128;2023-08-12T00:25:33;100631.41;;;18.53
24740;BMP280;45234;48.148;17.128;2023-08-12T00:28:00;100633.16;;;18.47
24740;BMP280;45234;48.148;17.128;2023-08-12T00:30:27;100624.34;;;18.42
24740;BMP280;45234;48.148;17.128;2023-08-12T00:32:54;100623.69;;;18.35
24740;BMP280;45234;48.148;17.128;2023-08-12T00:35:21;100614.69;;;18.31
24740;BMP280;45234;48.148;17.128;2023-08-12T00:37:48;100613.59;;;18.27
24740;BMP280;45234;48.148;17.128;2023-08-12T00:40:15;100611.28;;;18.19
24740;BMP280;45234;48.148;17.128;2023-08-12T00:42:42;100612.78;;;18.15
24740;BMP280;45234;48.148;17.128;2023-08-12T00:45:10;100616.41;;;18.13
24740;BMP280;45234;48.148;17.128;2023-08-12T00:47:41;100599.69;;;18.03
24740;BMP280;45234;48.148;17.128;2023-08-12T00:50:09;100599.44;;;17.93
24740;BMP280;45234;48.148;17.128;2023-08-12T00:52:39;100598.66;;;17.92
24740;BMP280;45234;48.148;17.128;2023-08-12T00:55:07;100596.72;;;17.88
24740;BMP280;45234;48.148;17.128;2023-08-12T00:57:34;100601.66;;;17.84
24740;BMP280;45234;48.148;17.128;2023-08-12T01:00:03;100600.06;;;17.83
24740;BMP280;45234;48.148;17.128;2023-08-12T01:02:31;100597.75;;;17.87
24740;BMP280;45234;48.148;17.128;2023-08-12T01:04:59;100598.34;;;17.89
24740;BMP280;45234;48.148;17.128;2023-08-12T01:07:27;100601.75;;;17.89
24740;BMP280;45234;48.148;17.128;2023-08-12T01:09:54;100611.66;;;17.87
24740;BMP280;45234;48.148;17.128;2023-08-12T01:12:32;100613.59;;;17.80
24740;BMP280;45234;48.148;17.128;2023-08-12T01:15:11;100612.56;;;17.81
24740;BMP280;45234;48.148;17.128;2023-08-12T01:17:42;100604.91;;;17.80
24740;BMP280;45234;48.148;17.128;2023-08-12T01:20:11;100612.16;;;17.84
24740;BMP280;45234;48.148;17.128;2023-08-12T01:22:44;100617.00;;;17.81
24740;BMP280;45234;48.148;17.128;2023-08-12T01:25:13;100610.97;;;17.80
24740;BMP280;45234;48.148;17.128;2023-08-12T01:27:40;100621.72;;;17.79
24740;BMP280;45234;48.148;17.128;2023-08-12T01:30:07;100618.97;;;17.73
24740;BMP280;45234;48.148;17.128;2023-08-12T01:35:40;100617.47;;;17.66
24740;BMP280;45234;48.148;17.128;2023-08-12T01:38:09;100615.66;;;17.66
24740;BMP280;45234;48.148;17.128;2023-08-12T01:40:39;100608.81;;;17.65
24740;BMP280;45234;48.148;17.128;2023-08-12T01:43:07;100615.44;;;17.68
24740;BMP280;45234;48.148;17.128;2023-08-12T01:45:35;100611.78;;;17.69
24740;BMP280;45234;48.148;17.128;2023-08-12T01:48:02;100615.75;;;17.71
24740;BMP280;45234;48.148;17.128;2023-08-12T01:50:30;100616.09;;;17.75
24740;BMP280;45234;48.148;17.128;2023-08-12T01:52:57;100616.47;;;17.79
24740;BMP280;45234;48.148;17.128;2023-08-12T01:55:24;100623.53;;;17.78
24740;BMP280;45234;48.148;17.128;2023-08-12T01:57:52;100614.63;;;17.79
24740;BMP280;45234;48.148;17.128;2023-08-12T02:00:19;100616.69;;;17.77
24740;BMP280;45234;48.148;17.128;2023-08-12T02:02:47;100622.16;;;17.76
24740;BMP280;45234;48.148;17.128;2023-08-12T02:05:15;100614.06;;;17.77
24740;BMP280;45234;48.148;17.128;2023-08-12T02:07:42;100612.56;;;17.81
24740;BMP280;45234;48.148;17.128;2023-08-12T02:10:09;100610.97;;;17.80
24740;BMP280;45234;48.148;17.128;2023-08-12T02:12:37;100612.16;;;17.84
24740;BMP280;45234;48.148;17.128;2023-08-12T02:15:04;100612.69;;;17.86
24740;BMP280;45234;48.148;17.128;2023-08-12T02:17:33;100606.44;;;17.87
24740;BMP280;45234;48.148;17.128;2023-08-12T02:20:00;100604.81;;;17.86
24740;BMP280;45234;48.148;17.128;2023-08-12T02:22:30;100610.88;;;17.87
24740;BMP280;45234;48.148;17.128;2023-08-12T02:24:57;100604.81;;;17.86
24740;BMP280;45234;48.148;17.128;2023-08-12T02:27:24;100610.06;;;17.86
24740;BMP280;45234;48.148;17.128;2023-08-12T02:29:51;100601.28;;;17.81
24740;BMP280;45234;48.148;17.128;2023-08-12T02:32:18;100600.06;;;17.83
24740;BMP280;45234;48.148;17.128;2023-08-12T02:34:45;100593.19;;;17.82
24740;BMP280;45234;48.148;17.128;2023-08-12T02:37:12;100596.03;;;17.81
24740;BMP280;45234;48.148;17.128;2023-08-12T02:39:40;100597.84;;;17.80
24740;BMP280;45234;48.148;17.128;2023-08-12T02:42:07;100598.91;;;17.79
24740;BMP280;45234;48.148;17.128;2023-08-12T02:44:34;100603.56;;;17.77
24740;BMP280;45234;48.148;17.128;2023-08-12T02:47:01;100603.00;;;17.75
24740;BMP280;45234;48.148;17.128;2023-08-12T02:49:28;100605.47;;;17.70
24740;BMP280;45234;48.148;17.128;2023-08-12T02:51:55;100609.59;;;17.66
24740;BMP280;45234;48.148;17.128;2023-08-12T02:54:22;100610.53;;;17.60
24740;BMP280;45234;48.148;17.128;2023-08-12T02:56:50;100611.44;;;17.54
24740;BMP280;45234;48.148;17.128;2023-08-12T02:59:17;100617.91;;;17.51
24740;BMP280;45234;48.148;17.128;2023-08-12T03:01:44;100615.84;;;17.42
24740;BMP280;45234;48.148;17.128;2023-08-12T03:04:12;100619.81;;;17.32
24740;BMP280;45234;48.148;17.128;2023-08-12T03:06:39;100622.78;;;17.24
24740;BMP280;45234;48.148;17.128;2023-08-12T03:09:06;100621.59;;;17.20
24740;BMP280;45234;48.148;17.128;2023-08-12T03:11:34;100622.50;;;17.14
24740;BMP280;45234;48.148;17.128;2023-08-12T03:14:03;100626.00;;;17.08
24740;BMP280;45234;48.148;17.128;2023-08-12T03:16:30;100617.56;;;17.06
24740;BMP280;45234;48.148;17.128;2023-08-12T03:18:57;100612.19;;;17.01
24740;BMP280;45234;48.148;17.128;2023-08-12T03:21:24;100617.00;;;17.04
24740;BMP280;45234;48.148;17.128;2023-08-12T03:23:51;100620.19;;;17.06
24740;BMP280;45234;48.148;17.128;2023-08-12T03:26:18;100620.75;;;17.08
24740;BMP280;45234;48.148;17.128;2023-08-12T03:28:46;100629.44;;;17.09
24740;BMP280;45234;48.148;17.128;2023-08-12T03:31:16;100625.00;;;17.09
24740;BMP280;45234;48.148;17.128;2023-08-12T03:33:43;100624.63;;;17.06
24740;BMP280;45234;48.148;17.128;2023-08-12T03:36:12;100632.25;;;17.07
24740;BMP280;45234;48.148;17.128;2023-08-12T03:38:39;100637.50;;;17.07
24740;BMP280;45234;48.148;17.128;2023-08-12T03:41:12;100634.75;;;17.02
24740;BMP280;45234;48.148;17.128;2023-08-12T03:43:39;100635.34;;;17.04
24740;BMP280;45234;48.148;17.128;2023-08-12T03:46:08;100640.78;;;17.03
24740;BMP280;45234;48.148;17.128;2023-08-12T03:48:34;100634.31;;;17.05
24740;BMP280;45234;48.148;17.128;2023-08-12T03:51:01;100640.00;;;17.02
24740;BMP280;45234;48.148;17.128;2023-08-12T03:53:28;100638.66;;;17.00
24740;BMP280;45234;48.148;17.128;2023-08-12T03:55:55;100639.44;;;17.00
24740;BMP280;45234;48.148;17.128;2023-08-12T03:58:22;100633.16;;;17.01
24740;BMP280;45234;48.148;17.128;2023-08-12T04:00:49;100635.22;;;16.99
24740;BMP280;45234;48.148;17.128;2023-08-12T04:03:16;100634.22;;;17.00
24740;BMP280;45234;48.148;17.128;2023-08-12T04:05:53;100637.22;;;16.97
24740;BMP280;45234;48.148;17.128;2023-08-12T04:08:23;100637.59;;;17.01
24740;BMP280;45234;48.148;17.128;2023-08-12T04:10:51;100644.81;;;17.05
24740;BMP280;45234;48.148;17.128;2023-08-12T04:13:18;100644.00;;;17.05
24740;BMP280;45234;48.148;17.128;2023-08-12T04:15:49;100643.63;;;17.01
24740;BMP280;45234;48.148;17.128;2023-08-12T04:18:16;100637.72;;;17.06
24740;BMP280;45234;48.148;17.128;2023-08-12T04:20:45;100639.56;;;17.05
24740;BMP280;45234;48.148;17.128;2023-08-12T04:23:14;100642.09;;;17.12
24740;BMP280;45234;48.148;17.128;2023-08-12T04:25:43;100643.91;;;17.11
24740;BMP280;45234;48.148;17.128;2023-08-12T04:28:13;100636.97;;;17.17
24740;BMP280;45234;48.148;17.128;2023-08-12T04:30:48;100637.22;;;17.15
24740;BMP280;45234;48.148;17.128;2023-08-12T04:33:17;100637.69;;;17.24
24740;BMP280;45234;48.148;17.128;2023-08-12T04:35:45;100641.22;;;17.29
24740;BMP280;45234;48.148;17.128;2023-08-12T04:38:14;100638.38;;;17.31
24740;BMP280;45234;48.148;17.128;2023-08-12T04:40:42;100641.81;;;17.31
24740;BMP280;45234;48.148;17.128;2023-08-12T04:43:11;100639.53;;;17.35
24740;BMP280;45234;48.148;17.128;2023-08-12T04:45:44;100638.84;;;17.40
24740;BMP280;45234;48.148;17.128;2023-08-12T04:48:11;100637.94;;;17.46
24740;BMP280;45234;48.148;17.128;2023-08-12T04:50:38;100637.72;;;17.47
24740;BMP280;45234;48.148;17.128;2023-08-12T04:53:07;100639.13;;;17.50
24740;BMP280;45234;48.148;17.128;2023-08-12T04:55:35;100640.03;;;17.55
24740;BMP280;45234;48.148;17.128;2023-08-12T04:58:03;100638.44;;;17.66
24740;BMP280;45234;48.148;17.128;2023-08-12T05:00:31;100640.63;;;17.69
24740;BMP280;45234;48.148;17.128;2023-08-12T05:02:59;100636.94;;;17.70
24740;BMP280;45234;48.148;17.128;2023-08-12T05:05:27;100644.28;;;17.68
24740;BMP280;45234;48.148;17.128;2023-08-12T05:07:54;100645.19;;;17.73
24740;BMP280;45234;48.148;17.128;2023-08-12T05:10:22;100653.97;;;17.79
24740;BMP280;45234;48.148;17.128;2023-08-12T05:12:50;100638.56;;;17.94
24740;BMP280;45234;48.148;17.128;2023-08-12T05:15:19;100644.72;;;18.11
24740;BMP280;45234;48.148;17.128;2023-08-12T05:17:47;100640.50;;;18.22
24740;BMP280;45234;48.148;17.128;2023-08-12T05:20:18;100644.69;;;18.35
24740;BMP280;45234;48.148;17.128;2023-08-12T05:22:45;100644.44;;;18.48
24740;BMP280;45234;48.148;17.128;2023-08-12T05:25:12;100650.22;;;18.62
24740;BMP280;45234;48.148;17.128;2023-08-12T05:27:38;100651.31;;;18.77
24740;BMP280;45234;48.148;17.128;2023-08-12T05:30:06;100639.31;;;18.98
24740;BMP280;45234;48.148;17.128;2023-08-12T05:32:33;100643.59;;;19.66
24740;BMP280;45234;48.148;17.128;2023-08-12T05:35:00;100640.16;;;20.69
24740;BMP280;45234;48.148;17.128;2023-08-12T05:37:28;100644.97;;;21.88
24740;BMP280;45234;48.148;17.128;2023-08-12T05:39:55;100651.03;;;23.27
24740;BMP280;45234;48.148;17.128;2023-08-12T05:42:22;100650.34;;;24.35
24740;BMP280;45234;48.148;17.128;2023-08-12T05:44:49;100646.78;;;25.12
24740;BMP280;45234;48.148;17.128;2023-08-12T05:47:16;100657.94;;;26.23
24740;BMP280;45234;48.148;17.128;2023-08-12T05:49:43;100649.47;;;27.13
24740;BMP280;45234;48.148;17.128;2023-08-12T05:52:12;100645.41;;;27.70
24740;BMP280;45234;48.148;17.128;2023-08-12T05:54:40;100660.25;;;27.98
24740;BMP280;45234;48.148;17.128;2023-08-12T05:57:07;100660.47;;;28.55
24740;BMP280;45234;48.148;17.128;2023-08-12T05:59:34;100656.66;;;28.25
24740;BMP280;45234;48.148;17.128;2023-08-12T06:02:00;100659.66;;;28.24
24740;BMP280;45234;48.148;17.128;2023-08-12T06:04:27;100651.28;;;28.39
24740;BMP280;45234;48.148;17.128;2023-08-12T06:06:54;100653.63;;;28.71
24740;BMP280;45234;48.148;17.128;2023-08-12T06:09:21;100653.72;;;29.36
24740;BMP280;45234;48.148;17.128;2023-08-12T06:11:48;100651.75;;;29.11
24740;BMP280;45234;48.148;17.128;2023-08-12T06:14:15;100654.13;;;28.73
24740;BMP280;45234;48.148;17.128;2023-08-12T06:16:42;100646.81;;;28.87
24740;BMP280;45234;48.148;17.128;2023-08-12T06:19:09;100655.69;;;28.66
24740;BMP280;45234;48.148;17.128;2023-08-12T06:21:36;100652.44;;;28.77
24740;BMP280;45234;48.148;17.128;2023-08-12T06:24:04;100657.13;;;28.80
24740;BMP280;45234;48.148;17.128;2023-08-12T06:26:31;100649.78;;;29.34
24740;BMP280;45234;48.148;17.128;2023-08-12T06:28:58;100656.66;;;29.35
24740;BMP280;45234;48.148;17.128;2023-08-12T06:31:25;100661.38;;;28.81
24740;BMP280;45234;48.148;17.128;2023-08-12T06:33:52;100662.50;;;28.58
24740;BMP280;45234;48.148;17.128;2023-08-12T06:36:19;100658.91;;;28.54
24740;BMP280;45234;48.148;17.128;2023-08-12T06:38:46;100661.66;;;28.71
24740;BMP280;45234;48.148;17.128;2023-08-12T06:41:13;100654.13;;;29.13
24740;BMP280;45234;48.148;17.128;2023-08-12T06:43:39;100658.94;;;29.67
24740;BMP280;45234;48.148;17.128;2023-08-12T06:46:06;100655.53;;;30.39
24740;BMP280;45234;48.148;17.128;2023-08-12T06:48:33;100653.50;;;30.82
24740;BMP280;45234;48.148;17.128;2023-08-12T06:51:00;100648.63;;;30.84
24740;BMP280;45234;48.148;17.128;2023-08-12T06:53:30;100649.00;;;30.74
24740;BMP280;45234;48.148;17.128;2023-08-12T06:55:57;100660.56;;;30.49
24740;BMP280;45234;48.148;17.128;2023-08-12T06:58:24;100657.94;;;30.70
24740;BMP280;45234;48.148;17.128;2023-08-12T07:00:51;100660.66;;;30.15
24740;BMP280;45234;48.148;17.128;2023-08-12T07:03:20;100657.50;;;29.95
24740;BMP280;45234;48.148;17.128;2023-08-12T07:05:47;100655.31;;;29.46
24740;BMP280;45234;48.148;17.128;2023-08-12T07:08:13;100664.63;;;29.09
24740;BMP280;45234;48.148;17.128;2023-08-12T07:10:43;100661.66;;;29.11
24740;BMP280;45234;48.148;17.128;2023-08-12T07:13:10;100654.94;;;28.82
24740;BMP280;45234;48.148;17.128;2023-08-12T07:15:37;100655.31;;;28.89
24740;BMP280;45234;48.148;17.128;2023-08-12T07:18:04;100664.78;;;29.13
24740;BMP280;45234;48.148;17.128;2023-08-12T07:20:31;100657.13;;;28.80
24740;BMP280;45234;48.148;17.128;2023-08-12T07:22:58;100655.84;;;28.69
24740;BMP280;45234;48.148;17.128;2023-08-12T07:25:25;100654.66;;;28.53
24740;BMP280;45234;48.148;17.128;2023-08-12T07:27:52;100644.13;;;28.26
24740;BMP280;45234;48.148;17.128;2023-08-12T07:30:19;100643.47;;;28.20
24740;BMP280;45234;48.148;17.128;2023-08-12T07:32:46;100648.25;;;28.32
24740;BMP280;45234;48.148;17.128;2023-08-12T07:35:13;100649.75;;;28.24
24740;BMP280;45234;48.148;17.128;2023-08-12T07:37:40;100640.59;;;28.39
24740;BMP280;45234;48.148;17.128;2023-08-12T07:40:07;100645.50;;;28.45
24740;BMP280;45234;48.148;17.128;2023-08-12T07:42:35;100630.97;;;28.29
24740;BMP280;45234;48.148;17.128;2023-08-12T07:45:02;100645.03;;;28.21
24740;BMP280;45234;48.148;17.128;2023-08-12T07:47:30;100635.66;;;28.01
24740;BMP280;45234;48.148;17.128;2023-08-12T07:49:57;100641.44;;;28.03
24740;BMP280;45234;48.148;17.128;2023-08-12T07:52:24;100644.41;;;28.24
24740;BMP280;45234;48.148;17.128;2023-08-12T07:54:51;100644.13;;;28.48
24740;BMP280;45234;48.148;17.128;2023-08-12T07:57:18;100642.97;;;28.71
24740;BMP280;45234;48.148;17.128;2023-08-12T07:59:47;100645.66;;;29.11
24740;BMP280;45234;48.148;17.128;2023-08-12T08:02:14;100648.53;;;29.40
24740;BMP280;45234;48.148;17.128;2023-08-12T08:04:41;100652.78;;;29.50
24740;BMP280;45234;48.148;17.128;2023-08-12T08:07:08;100648.56;;;29.74
24740;BMP280;45234;48.148;17.128;2023-08-12T08:09:35;100646.50;;;29.97
24740;BMP280;45234;48.148;17.128;2023-08-12T08:12:03;100652.78;;;29.84
24740;BMP280;45234;48.148;17.128;2023-08-12T08:14:31;100647.16;;;29.60
24740;BMP280;45234;48.148;17.128;2023-08-12T08:16:58;100641.97;;;29.46
24740;BMP280;45234;48.148;17.128;2023-08-12T08:19:25;100642.72;;;29.55
24740;BMP280;45234;48.148;17.128;2023-08-12T08:21:56;100642.09;;;29.67
24740;BMP280;45234;48.148;17.128;2023-08-12T08:24:23;100646.19;;;29.81
24740;BMP280;45234;48.148;17.128;2023-08-12T08:26:50;100644.78;;;29.58
24740;BMP280;45234;48.148;17.128;2023-08-12T08:29:17;100641.94;;;29.55
24740;BMP280;45234;48.148;17.128;2023-08-12T08:31:44;100640.19;;;29.33
24740;BMP280;45234;48.148;17.128;2023-08-12T08:34:11;100640.00;;;29.21
24740;BMP280;45234;48.148;17.128;2023-08-12T08:36:39;100637.78;;;29.23
24740;BMP280;45234;48.148;17.128;2023-08-12T08:39:06;100635.91;;;29.15
24740;BMP280;45234;48.148;17.128;2023-08-12T08:41:38;100637.63;;;29.11
24740;BMP280;45234;48.148;17.128;2023-08-12T08:44:08;100629.03;;;29.31
24740;BMP280;45234;48.148;17.128;2023-08-12T08:46:35;100635.97;;;29.66
24740;BMP280;45234;48.148;17.128;2023-08-12T08:49:03;100632.38;;;29.79
24740;BMP280;45234;48.148;17.128;2023-08-12T08:51:31;100632.53;;;29.74
24740;BMP280;45234;48.148;17.128;2023-08-12T08:53:59;100641.63;;;29.65
24740;BMP280;45234;48.148;17.128;2023-08-12T08:56:32;100632.34;;;29.45
24740;BMP280;45234;48.148;17.128;2023-08-12T08:59:03;100628.88;;;29.44
24740;BMP280;45234;48.148;17.128;2023-08-12T09:01:31;100634.19;;;29.19
24740;BMP280;45234;48.148;17.128;2023-08-12T09:03:59;100630.69;;;29.01
24740;BMP280;45234;48.148;17.128;2023-08-12T09:06:26;100630.50;;;28.89
24740;BMP280;45234;48.148;17.128;2023-08-12T09:08:55;100625.16;;;28.89
24740;BMP280;45234;48.148;17.128;2023-08-12T09:11:23;100623.47;;;29.02
24740;BMP280;45234;48.148;17.128;2023-08-12T09:13:50;100626.91;;;29.02
24740;BMP280;45234;48.148;17.128;2023-08-12T09:16:17;100632.59;;;29.09
24740;BMP280;45234;48.148;17.128;2023-08-12T09:18:44;100622.41;;;29.20
24740;BMP280;45234;48.148;17.128;2023-08-12T09:21:11;100622.41;;;29.20
24740;BMP280;45234;48.148;17.128;2023-08-12T09:23:40;100619.66;;;28.85
24740;BMP280;45234;48.148;17.128;2023-08-12T09:26:15;100617.53;;;28.65
24740;BMP280;45234;48.148;17.128;2023-08-12T09:28:42;100611.56;;;28.68
24740;BMP280;45234;48.148;17.128;2023-08-12T09:31:27;100617.53;;;28.65
24740;BMP280;45234;48.148;17.128;2023-08-12T09:33:59;100613.16;;;28.69
24740;BMP280;45234;48.148;17.128;2023-08-12T09:36:30;100612.66;;;28.67
24740;BMP280;45234;48.148;17.128;2023-08-12T09:38:58;100601.66;;;28.60
24740;BMP280;45234;48.148;17.128;2023-08-12T09:41:27;100604.66;;;28.67
24740;BMP280;45234;48.148;17.128;2023-08-12T09:43:55;100599.31;;;28.67
24740;BMP280;45234;48.148;17.128;2023-08-12T09:46:23;100600.75;;;28.73
24740;BMP280;45234;48.148;17.128;2023-08-12T09:48:51;100595.34;;;28.87
24740;BMP280;45234;48.148;17.128;2023-08-12T09:51:21;100601.28;;;28.92
24740;BMP280;45234;48.148;17.128;2023-08-12T09:53:49;100599.38;;;28.84
24740;BMP280;45234;48.148;17.128;2023-08-12T09:56:19;100600.16;;;28.76
24740;BMP280;45234;48.148;17.128;2023-08-12T09:58:49;100592.50;;;28.83
24740;BMP280;45234;48.148;17.128;2023-08-12T10:01:20;100596.22;;;28.82
24740;BMP280;45234;48.148;17.128;2023-08-12T10:03:50;100592.75;;;28.73
24740;BMP280;45234;48.148;17.128;2023-08-12T10:06:20;100586.53;;;28.86
24740;BMP280;45234;48.148;17.128;2023-08-12T10:08:47;100584.69;;;28.95
24740;BMP280;45234;48.148;17.128;2023-08-12T10:11:15;100582.56;;;28.75
24740;BMP280;45234;48.148;17.128;2023-08-12T10:13:43;100580.22;;;28.43
24740;BMP280;45234;48.148;17.128;2023-08-12T10:16:10;100585.09;;;28.19
24740;BMP280;45234;48.148;17.128;2023-08-12T10:18:42;100577.41;;;27.95
24740;BMP280;45234;48.148;17.128;2023-08-12T10:21:10;100580.88;;;27.95
24740;BMP280;45234;48.148;17.128;2023-08-12T10:23:42;100570.91;;;27.87
24740;BMP280;45234;48.148;17.128;2023-08-12T10:26:14;100568.63;;;27.72
24740;BMP280;45234;48.148;17.128;2023-08-12T10:28:41;100569.81;;;27.66
24740;BMP280;45234;48.148;17.128;2023-08-12T10:31:11;100571.56;;;27.48
24740;BMP280;45234;48.148;17.128;2023-08-12T10:33:39;100562.63;;;27.31
24740;BMP280;45234;48.148;17.128;2023-08-12T10:36:07;100563.91;;;27.20
24740;BMP280;45234;48.148;17.128;2023-08-12T10:38:34;100564.22;;;27.18
24740;BMP280;45234;48.148;17.128;2023-08-12T10:41:24;100557.34;;;27.03
24740;BMP280;45234;48.148;17.128;2023-08-12T10:43:57;100558.13;;;27.04
24740;BMP280;45234;48.148;17.128;2023-08-12T10:49:18;100555.13;;;27.19
24740;BMP280;45234;48.148;17.128;2023-08-12T10:51:53;100538.38;;;27.18
24740;BMP280;45234;48.148;17.128;2023-08-12T10:54:25;100553.19;;;27.25
24740;BMP280;45234;48.148;17.128;2023-08-12T11:02:47;100540.41;;;26.99
24740;BMP280;45234;48.148;17.128;2023-08-12T11:05:15;100532.38;;;27.13
24740;BMP280;45234;48.148;17.128;2023-08-12T11:07:47;100536.63;;;27.14
24740;BMP280;45234;48.148;17.128;2023-08-12T11:10:22;100538.38;;;27.18
24740;BMP280;45234;48.148;17.128;2023-08-12T11:15:45;100521.47;;;27.14
24740;BMP280;45234;48.148;17.128;2023-08-12T11:18:20;100515.13;;;27.24
24740;BMP280;45234;48.148;17.128;2023-08-12T11:20:48;100510.94;;;27.32
24740;BMP280;45234;48.148;17.128;2023-08-12T11:23:18;100517.44;;;27.39
24740;BMP280;45234;48.148;17.128;2023-08-12T11:25:47;100514.66;;;27.44
24740;BMP280;45234;48.148;17.128;2023-08-12T11:28:18;100514.00;;;27.39
24740;BMP280;45234;48.148;17.128;2023-08-12T11:30:48;100515.44;;;27.45
24740;BMP280;45234;48.148;17.128;2023-08-12T11:33:16;100515.31;;;27.50
24740;BMP280;45234;48.148;17.128;2023-08-12T11:35:47;100502.00;;;27.50
24740;BMP280;45234;48.148;17.128;2023-08-12T11:38:15;100508.44;;;27.49
24740;BMP280;45234;48.148;17.128;2023-08-12T11:40:43;100503.41;;;27.47
24740;BMP280;45234;48.148;17.128;2023-08-12T11:43:10;100511.59;;;27.51
24740;BMP280;45234;48.148;17.128;2023-08-12T11:45:41;100493.66;;;27.43
24740;BMP280;45234;48.148;17.128;2023-08-12T11:48:08;100495.81;;;27.41
24740;BMP280;45234;48.148;17.128;2023-08-12T11:50:36;100482.50;;;27.41
24740;BMP280;45234;48.148;17.128;2023-08-12T11:53:03;100487.09;;;27.40
24740;BMP280;45234;48.148;17.128;2023-08-12T11:55:31;100485.69;;;27.43
24740;BMP280;45234;48.148;17.128;2023-08-12T11:57:58;100481.31;;;27.47
24740;BMP280;45234;48.148;17.128;2023-08-12T12:00:25;100484.16;;;27.50
24740;BMP280;45234;48.148;17.128;2023-08-12T12:02:54;100472.84;;;27.45
24740;BMP280;45234;48.148;17.128;2023-08-12T12:05:27;100476.44;;;27.40
24740;BMP280;45234;48.148;17.128;2023-08-12T12:07:54;100477.97;;;27.41
24740;BMP280;45234;48.148;17.128;2023-08-12T12:10:27;100468.25;;;27.37
24740;BMP280;45234;48.148;17.128;2023-08-12T12:13:01;100468.56;;;27.35
24740;BMP280;45234;48.148;17.128;2023-08-12T12:15:28;100462.31;;;27.40
24740;BMP280;45234;48.148;17.128;2023-08-12T12:17:55;100457.47;;;27.42
24740;BMP280;45234;48.148;17.128;2023-08-12T12:20:22;100457.47;;;27.42
24740;BMP280;45234;48.148;17.128;2023-08-12T12:22:49;100453.72;;;27.43
24740;BMP280;45234;48.148;17.128;2023-08-12T12:25:17;100457.69;;;27.45
24740;BMP280;45234;48.148;17.128;2023-08-12T12:27:47;100441.88;;;27.49
24740;BMP280;45234;48.148;17.128;2023-08-12T12:30:16;100437.03;;;27.51
24740;BMP280;45234;48.148;17.128;2023-08-12T12:32:43;100440.84;;;27.58
24740;BMP280;45234;48.148;17.128;2023-08-12T12:35:10;100438.03;;;27.63
24740;BMP280;45234;48.148;17.128;2023-08-12T12:37:39;100437.88;;;27.60
24740;BMP280;45234;48.148;17.128;2023-08-12T12:40:07;100442.41;;;27.59
24740;BMP280;45234;48.148;17.128;2023-08-12T12:42:34;100442.72;;;27.58
24740;BMP280;45234;48.148;17.128;2023-08-12T12:45:01;100442.22;;;27.56
24740;BMP280;45234;48.148;17.128;2023-08-12T12:47:31;100447.56;;;27.56
24740;BMP280;45234;48.148;17.128;2023-08-12T12:49:58;100443.31;;;27.55
24740;BMP280;45234;48.148;17.128;2023-08-12T12:52:25;100447.84;;;27.54
24740;BMP280;45234;48.148;17.128;2023-08-12T12:54:52;100441.25;;;27.52
24740;BMP280;45234;48.148;17.128;2023-08-12T12:57:19;100433.75;;;27.54
24740;BMP280;45234;48.148;17.128;2023-08-12T12:59:46;100422.50;;;27.57
24740;BMP280;45234;48.148;17.128;2023-08-12T13:02:12;100428.63;;;27.66
24740;BMP280;45234;48.148;17.128;2023-08-12T13:04:40;100423.84;;;27.68
24740;BMP280;45234;48.148;17.128;2023-08-12T13:07:07;100427.59;;;27.67
24740;BMP280;45234;48.148;17.128;2023-08-12T13:09:33;100419.59;;;27.67
24740;BMP280;45234;48.148;17.128;2023-08-12T13:12:00;100421.63;;;27.70
24740;BMP280;45234;48.148;17.128;2023-08-12T13:14:27;100408.31;;;27.70
24740;BMP280;45234;48.148;17.128;2023-08-12T13:16:56;100408.00;;;27.72
24740;BMP280;45234;48.148;17.128;2023-08-12T13:19:23;100408.16;;;27.75
24740;BMP280;45234;48.148;17.128;2023-08-12T13:21:50;100406.13;;;27.72
24740;BMP280;45234;48.148;17.128;2023-08-12T13:24:17;100395.00;;;27.70
24740;BMP280;45234;48.148;17.128;2023-08-12T13:26:44;100397.19;;;27.68
24740;BMP280;45234;48.148;17.128;2023-08-12T13:29:11;100397.19;;;27.68
24740;BMP280;45234;48.148;17.128;2023-08-12T13:31:38;100393.44;;;27.69
24740;BMP280;45234;48.148;17.128;2023-08-12T13:34:06;100396.41;;;27.68
24740;BMP280;45234;48.148;17.128;2023-08-12T13:36:34;100387.47;;;27.72
24740;BMP280;45234;48.148;17.128;2023-08-12T13:39:01;100396.75;;;27.75
24740;BMP280;45234;48.148;17.128;2023-08-12T13:41:28;100388.94;;;27.78
24740;BMP280;45234;48.148;17.128;2023-08-12T13:43:55;100389.22;;;27.77
24740;BMP280;45234;48.148;17.128;2023-08-12T13:46:22;100384.72;;;27.77
24740;BMP280;45234;48.148;17.128;2023-08-12T13:48:48;100371.84;;;27.79
24740;BMP280;45234;48.148;17.128;2023-08-12T13:51:15;100379.38;;;27.77
24740;BMP280;45234;48.148;17.128;2023-08-12T13:53:42;100375.13;;;27.76
24740;BMP280;45234;48.148;17.128;2023-08-12T13:56:09;100368.19;;;27.75
24740;BMP280;45234;48.148;17.128;2023-08-12T13:58:36;100366.94;;;27.73
24740;BMP280;45234;48.148;17.128;2023-08-12T14:01:03;100364.00;;;27.74
24740;BMP280;45234;48.148;17.128;2023-08-12T14:03:31;100366.94;;;27.73